Eureka - southern half: Past 24 Hour Conditions

 

Cape Dorset Airport

02:00 AM EDT 20 August 2014
This table is a summary of hourly weather conditions for the past 24 hours.
Date / Time
(EDT)
Wind(knots) Conditions Visibility(km) Pressure(kPa) Air tempC) Relative humidity(%) Dew pointC)
20 August 2014
2:00 SW 11 Cloudy 16 102.0 4 81 1
1:00 SW 10 gust 15 Cloudy 16 101.9 4 81 1
0:00 SW 9 Cloudy 16 101.8 4 82 1
19 August 2014
23:00 SW 10 Cloudy 16 101.7 4 83 1
22:00 SW 10 gust 16 Cloudy 16 101.7 4 82 1
21:00 SW 12 Cloudy 16 101.7 4 82 2
20:00 SW 11 gust 16 Cloudy 16 101.6 4 83 2
19:00 SW 9 Cloudy 16 101.5 5 81 2
18:00 WSW 11 gust 19 Cloudy 16 101.4 4 83 2
17:00 WSW 12 gust 19 Cloudy 16 101.3 5 82 2
16:00 WSW 16 gust 21 Light Rain 24 101.3 5 87 3
15:00 SW 12 Light Rain 24 101.2 5 86 3
14:00 WSW 11 gust 19 Haze 24 101.1 6 83 3
13:00 SW 13 gust 22 Light Rain 24 101.0 5 84 3
12:00 SW 14 gust 21 Mist 10 101.0 6 84 3
11:00 SW 16 gust 24 Cloudy 24 100.9 6 82 3
10:00 SW 16 gust 23 Mostly Cloudy 24 100.8 6 88 4
9:00 SW 18 gust 27 Cloudy 24 100.7 6 85 3
8:00 S 14 gust 23 Cloudy 13 100.7 5 88 3
7:00 SSW 18 gust 26 Cloudy 16 100.6 5 83 2
6:00 S 16 gust 24 Cloudy 16 100.5 5 84 2
5:00 SSW 16 gust 22 Cloudy 16 100.5 5 84 2
4:00 SSW 15 gust 21 Cloudy 16 100.5 5 86 3
3:00 S 13 gust 24 Cloudy 16 100.4 5 89 3
2:00 SSW 13 gust 22 Cloudy 15 100.4 5 88 3
 
Map of Arctic - Eastern Arctic marine weather areas Baker Lake Airport Chesterfield Inlet Airport Coral Harbour Airport Gjoa Haven Airport Kugaaruk Airport Rankin Inlet Airport Shepherd Bay Airport Whale Cove Airport Arctic Bay Brevoort Island Qikiqtarjuaq Airport Cape Dorset Airport Cape Dyer Cape Hooper Clyde Airport Grise Fiord Airport Hall Beach Airport Igloolik Airport Iqaluit Airport Longstaff Bluff Pangnirtung Airport Pond Inlet Airport Repulse Bay Airport Resolute Airport Resolution Island Rowley Island Airport Taloyoak Airport Wager Bay Akulivik Airport Ivujivik Airport Puvirnituq Airport Kangiqsujuaq Airport Kangirsuk Airport Quaqtaq Airport Tasiujaq Airport Cape Kakkiviak Cape Kiglapait Nain Airport Saglek Cape Mercy Kimmirut Airport Aupaluk Airport Salluit Airport Kangiqsualujjuaq Airport Fort Ross
Legend: buoyBuoy land stationLand Station